sensor_id;sensor_type;location;lat;lon;timestamp;temperature;humidity
6788;DHT22;3431;47.966;10.268;2023-02-02T00:00:05;2.40;99.90
6788;DHT22;3431;47.966;10.268;2023-02-02T00:00:27;2.40;99.90
6788;DHT22;3431;47.966;10.268;2023-02-02T00:00:48;2.40;99.90
6788;DHT22;3431;47.966;10.268;2023-02-02T00:01:11;2.40;99.90
6788;DHT22;3431;47.966;10.268;2023-02-02T00:01:33;2.80;99.90
6788;DHT22;3431;47.966;10.268;2023-02-02T00:01:56;2.40;99.90
6788;DHT22;3431;47.966;10.268;2023-02-02T00:02:19;2.40;99.90
6788;DHT22;3431;47.966;10.268;2023-02-02T00:02:41;2.40;99.90
6788;DHT22;3431;47.966;10.268;2023-02-02T00:03:02;2.40;99.90
6788;DHT22;3431;47.966;10.268;2023-02-02T00:03:24;2.40;99.90
6788;DHT22;3431;47.966;10.268;2023-02-02T00:03:46;2.40;99.90
6788;DHT22;3431;47.966;10.268;2023-02-02T00:04:14;2.40;99.90
6788;DHT22;3431;47.966;10.268;2023-02-02T00:04:36;2.40;99.90
6788;DHT22;3431;47.966;10.268;2023-02-02T00:04:58;2.40;99.90
6788;DHT22;3431;47.966;10.268;2023-02-02T00:05:19;2.40;99.90
6788;DHT22;3431;47.966;10.268;2023-02-02T00:05:49;2.40;99.90
6788;DHT22;3431;47.966;10.268;2023-02-02T00:06:11;2.40;99.90
6788;DHT22;3431;47.966;10.268;2023-02-02T00:06:32;2.40;99.90
6788;DHT22;3431;47.966;10.268;2023-02-02T00:06:55;2.40;99.90
6788;DHT22;3431;47.966;10.268;2023-02-02T00:07:17;2.40;99.90
6788;DHT22;3431;47.966;10.268;2023-02-02T00:07:38;2.40;99.90
6788;DHT22;3431;47.966;10.268;2023-02-02T00:08:00;2.40;99.90
6788;DHT22;3431;47.966;10.268;2023-02-02T00:08:21;2.40;99.90
6788;DHT22;3431;47.966;10.268;2023-02-02T00:08:44;2.40;99.90
6788;DHT22;3431;47.966;10.268;2023-02-02T00:09:06;2.40;99.90
6788;DHT22;3431;47.966;10.268;2023-02-02T00:09:29;2.40;99.90
6788;DHT22;3431;47.966;10.268;2023-02-02T00:09:51;2.40;99.90
6788;DHT22;3431;47.966;10.268;2023-02-02T00:10:13;2.40;99.90
6788;DHT22;3431;47.966;10.268;2023-02-02T00:10:35;2.40;99.90
6788;DHT22;3431;47.966;10.268;2023-02-02T00:10:56;2.40;99.90
6788;DHT22;3431;47.966;10.268;2023-02-02T00:11:18;2.40;99.90
6788;DHT22;3431;47.966;10.268;2023-02-02T00:11:42;2.40;99.90
6788;DHT22;3431;47.966;10.268;2023-02-02T00:12:04;2.40;99.90
6788;DHT22;3431;47.966;10.268;2023-02-02T00:12:26;2.40;99.90
6788;DHT22;3431;47.966;10.268;2023-02-02T00:12:48;2.40;99.90
6788;DHT22;3431;47.966;10.268;2023-02-02T00:13:10;2.40;99.90
6788;DHT22;3431;47.966;10.268;2023-02-02T00:13:34;2.40;99.90
6788;DHT22;3431;47.966;10.268;2023-02-02T00:13:55;2.40;99.90
6788;DHT22;3431;47.966;10.268;2023-02-02T00:14:17;2.40;99.90
6788;DHT22;3431;47.966;10.268;2023-02-02T00:14:39;2.40;99.90
6788;DHT22;3431;47.966;10.268;2023-02-02T00:15:01;2.40;99.90
6788;DHT22;3431;47.966;10.268;2023-02-02T00:15:23;2.40;99.90
6788;DHT22;3431;47.966;10.268;2023-02-02T00:15:45;2.40;99.90
6788;DHT22;3431;47.966;10.268;2023-02-02T00:16:40;2.40;99.90
6788;DHT22;3431;47.966;10.268;2023-02-02T00:17:03;2.40;99.90
6788;DHT22;3431;47.966;10.268;2023-02-02T00:17:25;2.40;99.90
6788;DHT22;3431;47.966;10.268;2023-02-02T00:17:46;2.40;99.90
6788;DHT22;3431;47.966;10.268;2023-02-02T00:18:09;2.40;99.90
6788;DHT22;3431;47.966;10.268;2023-02-02T00:18:31;2.40;99.90
6788;DHT22;3431;47.966;10.268;2023-02-02T00:18:53;2.40;99.90
6788;DHT22;3431;47.966;10.268;2023-02-02T00:19:17;2.40;99.90
6788;DHT22;3431;47.966;10.268;2023-02-02T00:19:39;2.40;99.90
6788;DHT22;3431;47.966;10.268;2023-02-02T00:20:01;2.40;99.90
6788;DHT22;3431;47.966;10.268;2023-02-02T00:20:23;3.40;99.90
6788;DHT22;3431;47.966;10.268;2023-02-02T00:20:44;2.40;99.90
6788;DHT22;3431;47.966;10.268;2023-02-02T00:21:09;2.40;99.90
6788;DHT22;3431;47.966;10.268;2023-02-02T00:21:31;2.40;99.90
6788;DHT22;3431;47.966;10.268;2023-02-02T00:21:53;2.40;99.90
6788;DHT22;3431;47.966;10.268;2023-02-02T00:22:16;2.40;99.90
6788;DHT22;3431;47.966;10.268;2023-02-02T00:22:37;2.40;99.90
6788;DHT22;3431;47.966;10.268;2023-02-02T00:22:59;2.40;99.90
6788;DHT22;3431;47.966;10.268;2023-02-02T00:23:21;2.40;99.90
6788;DHT22;3431;47.966;10.268;2023-02-02T00:23:43;2.30;99.90
6788;DHT22;3431;47.966;10.268;2023-02-02T00:24:05;2.40;99.90
6788;DHT22;3431;47.966;10.268;2023-02-02T00:24:27;2.40;99.90
6788;DHT22;3431;47.966;10.268;2023-02-02T00:24:49;2.40;99.90
6788;DHT22;3431;47.966;10.268;2023-02-02T00:25:11;2.40;99.90
6788;DHT22;3431;47.966;10.268;2023-02-02T00:25:33;2.30;99.90
6788;DHT22;3431;47.966;10.268;2023-02-02T00:25:54;2.40;99.90
6788;DHT22;3431;47.966;10.268;2023-02-02T00:26:17;2.40;99.90
6788;DHT22;3431;47.966;10.268;2023-02-02T00:26:40;2.40;99.90
6788;DHT22;3431;47.966;10.268;2023-02-02T00:27:02;2.30;99.90
6788;DHT22;3431;47.966;10.268;2023-02-02T00:27:24;2.30;99.90
6788;DHT22;3431;47.966;10.268;2023-02-02T00:27:45;2.30;99.90
6788;DHT22;3431;47.966;10.268;2023-02-02T00:28:07;2.40;99.90
6788;DHT22;3431;47.966;10.268;2023-02-02T00:28:29;2.40;99.90
6788;DHT22;3431;47.966;10.268;2023-02-02T00:28:53;2.40;99.90
6788;DHT22;3431;47.966;10.268;2023-02-02T00:29:18;2.40;99.90
6788;DHT22;3431;47.966;10.268;2023-02-02T00:29:39;2.40;99.90
6788;DHT22;3431;47.966;10.268;2023-02-02T00:30:02;2.40;99.90
6788;DHT22;3431;47.966;10.268;2023-02-02T00:30:24;2.40;99.90
6788;DHT22;3431;47.966;10.268;2023-02-02T00:30:46;2.40;99.90
6788;DHT22;3431;47.966;10.268;2023-02-02T00:31:07;2.40;99.90
6788;DHT22;3431;47.966;10.268;2023-02-02T00:31:29;2.40;99.90
6788;DHT22;3431;47.966;10.268;2023-02-02T00:31:51;2.40;99.90
6788;DHT22;3431;47.966;10.268;2023-02-02T00:32:13;2.40;99.90
6788;DHT22;3431;47.966;10.268;2023-02-02T00:32:35;2.40;99.90
6788;DHT22;3431;47.966;10.268;2023-02-02T00:32:57;2.30;99.90
6788;DHT22;3431;47.966;10.268;2023-02-02T00:33:18;2.40;99.90
6788;DHT22;3431;47.966;10.268;2023-02-02T00:33:43;2.40;99.90
6788;DHT22;3431;47.966;10.268;2023-02-02T00:34:05;2.40;99.90
6788;DHT22;3431;47.966;10.268;2023-02-02T00:34:27;2.30;99.90
6788;DHT22;3431;47.966;10.268;2023-02-02T00:34:49;2.30;99.90
6788;DHT22;3431;47.966;10.268;2023-02-02T00:35:10;2.40;99.90
6788;DHT22;3431;47.966;10.268;2023-02-02T00:35:32;2.40;99.90
6788;DHT22;3431;47.966;10.268;2023-02-02T00:35:55;2.30;99.90
6788;DHT22;3431;47.966;10.268;2023-02-02T00:36:17;2.40;99.90
6788;DHT22;3431;47.966;10.268;2023-02-02T00:36:39;2.40;99.90
6788;DHT22;3431;47.966;10.268;2023-02-02T00:37:01;2.40;99.90
6788;DHT22;3431;47.966;10.268;2023-02-02T00:37:23;2.40;99.90
6788;DHT22;3431;47.966;10.268;2023-02-02T00:37:45;2.40;99.90
6788;DHT22;3431;47.966;10.268;2023-02-02T00:38:06;2.40;99.90
6788;DHT22;3431;47.966;10.268;2023-02-02T00:38:29;2.40;99.90
6788;DHT22;3431;47.966;10.268;2023-02-02T00:38:50;2.30;99.90
6788;DHT22;3431;47.966;10.268;2023-02-02T00:39:15;2.30;99.90
6788;DHT22;3431;47.966;10.268;2023-02-02T00:39:38;2.30;99.90
6788;DHT22;3431;47.966;10.268;2023-02-02T00:40:00;2.30;99.90
6788;DHT22;3431;47.966;10.268;2023-02-02T00:40:21;2.30;99.90
6788;DHT22;3431;47.966;10.268;2023-02-02T00:40:43;2.40;99.90
6788;DHT22;3431;47.966;10.268;2023-02-02T00:41:04;2.30;99.90
6788;DHT22;3431;47.966;10.268;2023-02-02T00:41:27;2.30;99.90
6788;DHT22;3431;47.966;10.268;2023-02-02T00:41:49;2.30;99.90
6788;DHT22;3431;47.966;10.268;2023-02-02T00:42:10;2.30;99.90
6788;DHT22;3431;47.966;10.268;2023-02-02T00:42:33;2.30;99.90
6788;DHT22;3431;47.966;10.268;2023-02-02T00:42:55;2.30;99.90
6788;DHT22;3431;47.966;10.268;2023-02-02T00:43:16;2.40;99.90
6788;DHT22;3431;47.966;10.268;2023-02-02T00:43:38;2.40;99.90
6788;DHT22;3431;47.966;10.268;2023-02-02T00:44:00;2.40;99.90
6788;DHT22;3431;47.966;10.268;2023-02-02T00:44:40;2.40;99.90
6788;DHT22;3431;47.966;10.268;2023-02-02T00:45:20;2.40;99.90
6788;DHT22;3431;47.966;10.268;2023-02-02T00:45:45;2.30;99.90
6788;DHT22;3431;47.966;10.268;2023-02-02T00:46:09;2.40;99.90
6788;DHT22;3431;47.966;10.268;2023-02-02T00:46:33;2.30;99.90
6788;DHT22;3431;47.966;10.268;2023-02-02T00:46:55;2.30;99.90
6788;DHT22;3431;47.966;10.268;2023-02-02T00:47:17;2.30;99.90
6788;DHT22;3431;47.966;10.268;2023-02-02T00:47:40;2.30;99.90
6788;DHT22;3431;47.966;10.268;2023-02-02T00:48:02;2.30;99.90
6788;DHT22;3431;47.966;10.268;2023-02-02T00:48:25;2.30;99.90
6788;DHT22;3431;47.966;10.268;2023-02-02T00:48:46;2.30;99.90
6788;DHT22;3431;47.966;10.268;2023-02-02T00:49:08;2.30;99.90
6788;DHT22;3431;47.966;10.268;2023-02-02T00:49:30;2.30;99.90
6788;DHT22;3431;47.966;10.268;2023-02-02T00:49:51;2.30;99.90
6788;DHT22;3431;47.966;10.268;2023-02-02T00:50:16;2.30;99.90
6788;DHT22;3431;47.966;10.268;2023-02-02T00:50:39;2.30;99.90
6788;DHT22;3431;47.966;10.268;2023-02-02T00:51:01;2.30;99.90
6788;DHT22;3431;47.966;10.268;2023-02-02T00:51:23;2.30;99.90
6788;DHT22;3431;47.966;10.268;2023-02-02T00:51:45;2.30;99.90
6788;DHT22;3431;47.966;10.268;2023-02-02T00:52:06;2.30;99.90
6788;DHT22;3431;47.966;10.268;2023-02-02T00:52:28;2.30;99.90
6788;DHT22;3431;47.966;10.268;2023-02-02T00:52:50;2.30;99.90
6788;DHT22;3431;47.966;10.268;2023-02-02T00:53:12;2.30;99.90
6788;DHT22;3431;47.966;10.268;2023-02-02T00:53:34;2.40;99.90
6788;DHT22;3431;47.966;10.268;2023-02-02T00:53:56;2.30;99.90
6788;DHT22;3431;47.966;10.268;2023-02-02T00:54:17;2.30;99.90
6788;DHT22;3431;47.966;10.268;2023-02-02T00:54:40;2.30;99.90
6788;DHT22;3431;47.966;10.268;2023-02-02T00:55:02;2.30;99.90
6788;DHT22;3431;47.966;10.268;2023-02-02T00:55:23;2.30;99.90
6788;DHT22;3431;47.966;10.268;2023-02-02T00:55:46;2.30;99.90
6788;DHT22;3431;47.966;10.268;2023-02-02T00:56:08;2.30;99.90
6788;DHT22;3431;47.966;10.268;2023-02-02T00:56:30;2.30;99.90
6788;DHT22;3431;47.966;10.268;2023-02-02T00:56:51;2.30;99.90
6788;DHT22;3431;47.966;10.268;2023-02-02T00:57:13;2.30;99.90
6788;DHT22;3431;47.966;10.268;2023-02-02T00:57:35;2.30;99.90
6788;DHT22;3431;47.966;10.268;2023-02-02T00:57:57;2.30;99.90
6788;DHT22;3431;47.966;10.268;2023-02-02T00:58:20;2.30;99.90
6788;DHT22;3431;47.966;10.268;2023-02-02T00:58:42;2.30;99.90
6788;DHT22;3431;47.966;10.268;2023-02-02T00:59:06;2.30;99.90
6788;DHT22;3431;47.966;10.268;2023-02-02T00:59:27;2.30;99.90
6788;DHT22;3431;47.966;10.268;2023-02-02T00:59:49;2.30;99.90
6788;DHT22;3431;47.966;10.268;2023-02-02T01:00:13;2.30;99.90
6788;DHT22;3431;47.966;10.268;2023-02-02T01:00:36;2.30;99.90
6788;DHT22;3431;47.966;10.268;2023-02-02T01:00:57;2.30;99.90
6788;DHT22;3431;47.966;10.268;2023-02-02T01:01:19;2.30;99.90
6788;DHT22;3431;47.966;10.268;2023-02-02T01:01:41;2.30;99.90
6788;DHT22;3431;47.966;10.268;2023-02-02T01:02:04;2.30;99.90
6788;DHT22;3431;47.966;10.268;2023-02-02T01:02:25;2.30;99.90
6788;DHT22;3431;47.966;10.268;2023-02-02T01:02:47;2.30;99.90
6788;DHT22;3431;47.966;10.268;2023-02-02T01:03:09;2.30;99.90
6788;DHT22;3431;47.966;10.268;2023-02-02T01:03:33;2.30;99.90
6788;DHT22;3431;47.966;10.268;2023-02-02T01:03:55;2.30;99.90
6788;DHT22;3431;47.966;10.268;2023-02-02T01:04:16;2.30;99.90
6788;DHT22;3431;47.966;10.268;2023-02-02T01:04:38;2.30;99.90
6788;DHT22;3431;47.966;10.268;2023-02-02T01:05:00;2.30;99.90
6788;DHT22;3431;47.966;10.268;2023-02-02T01:05:22;2.30;99.90
6788;DHT22;3431;47.966;10.268;2023-02-02T01:05:44;2.30;99.90
6788;DHT22;3431;47.966;10.268;2023-02-02T01:06:06;2.30;99.90
6788;DHT22;3431;47.966;10.268;2023-02-02T01:06:27;2.30;99.90
6788;DHT22;3431;47.966;10.268;2023-02-02T01:06:49;2.30;99.90
6788;DHT22;3431;47.966;10.268;2023-02-02T01:07:11;2.30;99.90
6788;DHT22;3431;47.966;10.268;2023-02-02T01:07:33;2.30;99.90
6788;DHT22;3431;47.966;10.268;2023-02-02T01:07:54;2.30;99.90
6788;DHT22;3431;47.966;10.268;2023-02-02T01:08:16;2.30;99.90
6788;DHT22;3431;47.966;10.268;2023-02-02T01:08:38;2.30;99.90
6788;DHT22;3431;47.966;10.268;2023-02-02T01:09:01;2.30;99.90
6788;DHT22;3431;47.966;10.268;2023-02-02T01:09:23;2.30;99.90
6788;DHT22;3431;47.966;10.268;2023-02-02T01:09:44;2.30;99.90
6788;DHT22;3431;47.966;10.268;2023-02-02T01:10:12;2.30;99.90
6788;DHT22;3431;47.966;10.268;2023-02-02T01:10:34;2.30;99.90
6788;DHT22;3431;47.966;10.268;2023-02-02T01:10:58;2.30;99.90
6788;DHT22;3431;47.966;10.268;2023-02-02T01:11:20;2.30;99.90
6788;DHT22;3431;47.966;10.268;2023-02-02T01:11:42;2.30;99.90
6788;DHT22;3431;47.966;10.268;2023-02-02T01:12:04;2.30;99.90
6788;DHT22;3431;47.966;10.268;2023-02-02T01:12:26;2.30;99.90
6788;DHT22;3431;47.966;10.268;2023-02-02T01:12:48;2.30;99.90
6788;DHT22;3431;47.966;10.268;2023-02-02T01:13:10;2.30;99.90
6788;DHT22;3431;47.966;10.268;2023-02-02T01:13:32;2.30;99.90
6788;DHT22;3431;47.966;10.268;2023-02-02T01:13:53;2.30;99.90
6788;DHT22;3431;47.966;10.268;2023-02-02T01:14:16;2.30;99.90
6788;DHT22;3431;47.966;10.268;2023-02-02T01:14:39;2.30;99.90
6788;DHT22;3431;47.966;10.268;2023-02-02T01:15:00;2.30;99.90
6788;DHT22;3431;47.966;10.268;2023-02-02T01:15:22;2.30;99.90
6788;DHT22;3431;47.966;10.268;2023-02-02T01:15:44;2.30;99.90
6788;DHT22;3431;47.966;10.268;2023-02-02T01:16:06;2.40;99.90
6788;DHT22;3431;47.966;10.268;2023-02-02T01:16:28;2.30;99.90
6788;DHT22;3431;47.966;10.268;2023-02-02T01:16:49;2.30;99.90
6788;DHT22;3431;47.966;10.268;2023-02-02T01:17:12;2.30;99.90
6788;DHT22;3431;47.966;10.268;2023-02-02T01:17:35;2.30;99.90
6788;DHT22;3431;47.966;10.268;2023-02-02T01:17:57;2.30;99.90
6788;DHT22;3431;47.966;10.268;2023-02-02T01:18:18;2.30;99.90
6788;DHT22;3431;47.966;10.268;2023-02-02T01:18:40;2.30;99.90
6788;DHT22;3431;47.966;10.268;2023-02-02T01:19:02;2.30;99.90
6788;DHT22;3431;47.966;10.268;2023-02-02T01:19:24;2.30;99.90
6788;DHT22;3431;47.966;10.268;2023-02-02T01:19:46;2.30;99.90
6788;DHT22;3431;47.966;10.268;2023-02-02T01:20:14;2.30;99.90
6788;DHT22;3431;47.966;10.268;2023-02-02T01:20:37;2.40;99.90
6788;DHT22;3431;47.966;10.268;2023-02-02T01:20:59;2.30;99.90
6788;DHT22;3431;47.966;10.268;2023-02-02T01:21:21;2.30;99.90
6788;DHT22;3431;47.966;10.268;2023-02-02T01:21:43;2.30;99.90
6788;DHT22;3431;47.966;10.268;2023-02-02T01:22:05;2.30;99.90
6788;DHT22;3431;47.966;10.268;2023-02-02T01:22:27;2.30;99.90
6788;DHT22;3431;47.966;10.268;2023-02-02T01:22:48;2.30;99.90
6788;DHT22;3431;47.966;10.268;2023-02-02T01:23:10;2.30;99.90
6788;DHT22;3431;47.966;10.268;2023-02-02T01:23:33;2.30;99.90
6788;DHT22;3431;47.966;10.268;2023-02-02T01:23:56;2.20;99.90
6788;DHT22;3431;47.966;10.268;2023-02-02T01:24:18;2.20;99.90
6788;DHT22;3431;47.966;10.268;2023-02-02T01:24:39;2.20;99.90
6788;DHT22;3431;47.966;10.268;2023-02-02T01:25:01;2.20;99.90
6788;DHT22;3431;47.966;10.268;2023-02-02T01:25:24;2.20;99.90
6788;DHT22;3431;47.966;10.268;2023-02-02T01:25:45;2.20;99.90
6788;DHT22;3431;47.966;10.268;2023-02-02T01:26:08;2.20;99.90
6788;DHT22;3431;47.966;10.268;2023-02-02T01:26:30;2.20;99.90
6788;DHT22;3431;47.966;10.268;2023-02-02T01:26:52;2.20;99.90
6788;DHT22;3431;47.966;10.268;2023-02-02T01:27:15;2.20;99.90
6788;DHT22;3431;47.966;10.268;2023-02-02T01:27:36;2.20;99.90
6788;DHT22;3431;47.966;10.268;2023-02-02T01:27:58;2.20;99.90
6788;DHT22;3431;47.966;10.268;2023-02-02T01:28:19;2.20;99.90
6788;DHT22;3431;47.966;10.268;2023-02-02T01:28:42;2.20;99.90
6788;DHT22;3431;47.966;10.268;2023-02-02T01:29:04;2.20;99.90
6788;DHT22;3431;47.966;10.268;2023-02-02T01:29:27;2.20;99.90
6788;DHT22;3431;47.966;10.268;2023-02-02T01:29:49;1.10;99.90
6788;DHT22;3431;47.966;10.268;2023-02-02T01:30:11;2.20;99.90
6788;DHT22;3431;47.966;10.268;2023-02-02T01:30:34;2.20;99.90
6788;DHT22;3431;47.966;10.268;2023-02-02T01:30:56;2.20;99.90
6788;DHT22;3431;47.966;10.268;2023-02-02T01:31:19;2.20;99.90
6788;DHT22;3431;47.966;10.268;2023-02-02T01:31:41;2.20;99.90
6788;DHT22;3431;47.966;10.268;2023-02-02T01:32:04;2.20;99.90
6788;DHT22;3431;47.966;10.268;2023-02-02T01:32:26;2.20;99.90
6788;DHT22;3431;47.966;10.268;2023-02-02T01:32:47;2.20;99.90
6788;DHT22;3431;47.966;10.268;2023-02-02T01:33:09;2.20;99.90
6788;DHT22;3431;47.966;10.268;2023-02-02T01:33:31;2.20;99.90
6788;DHT22;3431;47.966;10.268;2023-02-02T01:33:53;2.20;99.90
6788;DHT22;3431;47.966;10.268;2023-02-02T01:34:14;2.20;99.90
6788;DHT22;3431;47.966;10.268;2023-02-02T01:34:36;2.20;99.90
6788;DHT22;3431;47.966;10.268;2023-02-02T01:35:01;2.20;99.90
6788;DHT22;3431;47.966;10.268;2023-02-02T01:35:23;2.20;99.90
6788;DHT22;3431;47.966;10.268;2023-02-02T01:35:45;2.20;99.90
6788;DHT22;3431;47.966;10.268;2023-02-02T01:36:10;2.10;99.90
6788;DHT22;3431;47.966;10.268;2023-02-02T01:36:32;2.20;99.90
6788;DHT22;3431;47.966;10.268;2023-02-02T01:36:55;2.20;99.90
6788;DHT22;3431;47.966;10.268;2023-02-02T01:37:16;2.20;99.90
6788;DHT22;3431;47.966;10.268;2023-02-02T01:37:38;2.20;99.90
6788;DHT22;3431;47.966;10.268;2023-02-02T01:38:00;2.10;99.90
6788;DHT22;3431;47.966;10.268;2023-02-02T01:38:22;2.20;99.90
6788;DHT22;3431;47.966;10.268;2023-02-02T01:38:45;2.10;99.90
6788;DHT22;3431;47.966;10.268;2023-02-02T01:39:07;2.10;99.90
6788;DHT22;3431;47.966;10.268;2023-02-02T01:39:28;2.10;99.90
6788;DHT22;3431;47.966;10.268;2023-02-02T01:39:50;2.10;99.90
6788;DHT22;3431;47.966;10.268;2023-02-02T01:40:13;2.10;99.90
6788;DHT22;3431;47.966;10.268;2023-02-02T01:40:34;2.10;99.90
6788;DHT22;3431;47.966;10.268;2023-02-02T01:40:57;2.10;99.90
6788;DHT22;3431;47.966;10.268;2023-02-02T01:41:21;2.10;99.90
6788;DHT22;3431;47.966;10.268;2023-02-02T01:41:44;2.10;99.90
6788;DHT22;3431;47.966;10.268;2023-02-02T01:42:12;2.10;99.90
6788;DHT22;3431;47.966;10.268;2023-02-02T01:42:34;2.10;99.90
6788;DHT22;3431;47.966;10.268;2023-02-02T01:42:56;2.10;99.90
6788;DHT22;3431;47.966;10.268;2023-02-02T01:43:22;2.10;99.90
6788;DHT22;3431;47.966;10.268;2023-02-02T01:43:56;2.00;99.90
6788;DHT22;3431;47.966;10.268;2023-02-02T01:44:59;2.00;99.90
6788;DHT22;3431;47.966;10.268;2023-02-02T01:45:25;2.00;99.90
6788;DHT22;3431;47.966;10.268;2023-02-02T01:45:48;2.00;99.90
6788;DHT22;3431;47.966;10.268;2023-02-02T01:46:10;2.00;99.90
6788;DHT22;3431;47.966;10.268;2023-02-02T01:46:35;2.00;99.90
6788;DHT22;3431;47.966;10.268;2023-02-02T01:46:58;2.10;99.90
6788;DHT22;3431;47.966;10.268;2023-02-02T01:47:21;2.10;99.90
6788;DHT22;3431;47.966;10.268;2023-02-02T01:47:46;2.00;99.90
6788;DHT22;3431;47.966;10.268;2023-02-02T01:48:08;2.00;99.90
6788;DHT22;3431;47.966;10.268;2023-02-02T01:48:31;2.00;99.90
6788;DHT22;3431;47.966;10.268;2023-02-02T01:49:00;2.00;99.90
6788;DHT22;3431;47.966;10.268;2023-02-02T01:49:22;2.10;99.90
6788;DHT22;3431;47.966;10.268;2023-02-02T01:49:44;2.10;99.90
6788;DHT22;3431;47.966;10.268;2023-02-02T01:50:09;2.10;99.90
6788;DHT22;3431;47.966;10.268;2023-02-02T01:50:34;2.10;99.90
6788;DHT22;3431;47.966;10.268;2023-02-02T01:51:02;2.10;99.90
6788;DHT22;3431;47.966;10.268;2023-02-02T01:51:29;2.10;99.90
6788;DHT22;3431;47.966;10.268;2023-02-02T01:51:54;2.10;99.90
6788;DHT22;3431;47.966;10.268;2023-02-02T01:52:18;2.10;99.90
6788;DHT22;3431;47.966;10.268;2023-02-02T01:52:42;2.10;99.90
6788;DHT22;3431;47.966;10.268;2023-02-02T01:53:07;2.10;99.90
6788;DHT22;3431;47.966;10.268;2023-02-02T01:53:29;2.00;99.90
6788;DHT22;3431;47.966;10.268;2023-02-02T01:53:54;2.00;99.90
6788;DHT22;3431;47.966;10.268;2023-02-02T01:54:20;2.00;99.90
6788;DHT22;3431;47.966;10.268;2023-02-02T01:54:48;2.00;99.90
6788;DHT22;3431;47.966;10.268;2023-02-02T01:55:11;2.00;99.90
6788;DHT22;3431;47.966;10.268;2023-02-02T01:55:36;2.00;99.90
6788;DHT22;3431;47.966;10.268;2023-02-02T01:56:00;2.00;99.90
6788;DHT22;3431;47.966;10.268;2023-02-02T01:56:28;2.00;99.90
6788;DHT22;3431;47.966;10.268;2023-02-02T01:56:54;2.00;99.90
6788;DHT22;3431;47.966;10.268;2023-02-02T01:57:22;2.00;99.90
6788;DHT22;3431;47.966;10.268;2023-02-02T01:57:49;2.00;99.90
6788;DHT22;3431;47.966;10.268;2023-02-02T01:58:16;2.00;99.90
6788;DHT22;3431;47.966;10.268;2023-02-02T01:58:40;2.00;99.90
6788;DHT22;3431;47.966;10.268;2023-02-02T01:59:04;2.00;99.90
6788;DHT22;3431;47.966;10.268;2023-02-02T01:59:28;2.00;99.90
6788;DHT22;3431;47.966;10.268;2023-02-02T01:59:51;2.00;99.90
6788;DHT22;3431;47.966;10.268;2023-02-02T02:00:15;2.00;99.90
6788;DHT22;3431;47.966;10.268;2023-02-02T02:00:39;2.00;99.90
6788;DHT22;3431;47.966;10.268;2023-02-02T02:01:03;2.00;99.90
6788;DHT22;3431;47.966;10.268;2023-02-02T02:01:25;2.00;99.90
6788;DHT22;3431;47.966;10.268;2023-02-02T02:01:48;1.90;99.90
6788;DHT22;3431;47.966;10.268;2023-02-02T02:02:11;2.00;99.90
6788;DHT22;3431;47.966;10.268;2023-02-02T02:02:36;1.90;99.90
6788;DHT22;3431;47.966;10.268;2023-02-02T02:03:01;1.90;99.90
6788;DHT22;3431;47.966;10.268;2023-02-02T02:03:27;2.00;99.90
6788;DHT22;3431;47.966;10.268;2023-02-02T02:03:50;2.00;99.90
6788;DHT22;3431;47.966;10.268;2023-02-02T02:04:12;1.90;99.90
6788;DHT22;3431;47.966;10.268;2023-02-02T02:04:35;2.00;99.90
6788;DHT22;3431;47.966;10.268;2023-02-02T02:05:00;2.00;99.90
6788;DHT22;3431;47.966;10.268;2023-02-02T02:05:26;2.00;99.90
6788;DHT22;3431;47.966;10.268;2023-02-02T02:05:52;2.00;99.90
6788;DHT22;3431;47.966;10.268;2023-02-02T02:06:17;2.00;99.90
6788;DHT22;3431;47.966;10.268;2023-02-02T02:06:40;2.00;99.90
6788;DHT22;3431;47.966;10.268;2023-02-02T02:07:03;2.00;99.90
6788;DHT22;3431;47.966;10.268;2023-02-02T02:07:26;2.00;99.90
6788;DHT22;3431;47.966;10.268;2023-02-02T02:07:51;2.00;99.90
6788;DHT22;3431;47.966;10.268;2023-02-02T02:08:16;2.00;99.90
6788;DHT22;3431;47.966;10.268;2023-02-02T02:08:41;2.00;99.90
6788;DHT22;3431;47.966;10.268;2023-02-02T02:09:06;2.00;99.90
6788;DHT22;3431;47.966;10.268;2023-02-02T02:09:27;2.00;99.90
6788;DHT22;3431;47.966;10.268;2023-02-02T02:09:51;2.00;99.90
6788;DHT22;3431;47.966;10.268;2023-02-02T02:10:12;2.00;99.90
6788;DHT22;3431;47.966;10.268;2023-02-02T02:10:34;2.00;99.90
6788;DHT22;3431;47.966;10.268;2023-02-02T02:10:57;2.00;99.90
6788;DHT22;3431;47.966;10.268;2023-02-02T02:11:19;2.00;99.90
6788;DHT22;3431;47.966;10.268;2023-02-02T02:11:41;2.00;99.90
6788;DHT22;3431;47.966;10.268;2023-02-02T02:12:05;2.00;99.90
6788;DHT22;3431;47.966;10.268;2023-02-02T02:12:35;2.00;99.90
6788;DHT22;3431;47.966;10.268;2023-02-02T02:12:58;2.00;99.90
6788;DHT22;3431;47.966;10.268;2023-02-02T02:13:21;2.00;99.90
6788;DHT22;3431;47.966;10.268;2023-02-02T02:13:43;2.10;99.90
6788;DHT22;3431;47.966;10.268;2023-02-02T02:14:25;2.10;99.90
6788;DHT22;3431;47.966;10.268;2023-02-02T02:15:07;2.00;99.90
6788;DHT22;3431;47.966;10.268;2023-02-02T02:15:55;2.00;99.90
6788;DHT22;3431;47.966;10.268;2023-02-02T02:16:50;2.00;99.90
6788;DHT22;3431;47.966;10.268;2023-02-02T02:17:29;2.10;99.90
6788;DHT22;3431;47.966;10.268;2023-02-02T02:18:01;2.00;99.90
6788;DHT22;3431;47.966;10.268;2023-02-02T02:18:29;2.00;99.90
6788;DHT22;3431;47.966;10.268;2023-02-02T02:19:06;2.00;99.90
6788;DHT22;3431;47.966;10.268;2023-02-02T02:19:51;2.00;99.90
6788;DHT22;3431;47.966;10.268;2023-02-02T02:20:56;2.00;99.90
6788;DHT22;3431;47.966;10.268;2023-02-02T02:21:52;2.00;99.90
6788;DHT22;3431;47.966;10.268;2023-02-02T02:22:48;2.00;99.90
6788;DHT22;3431;47.966;10.268;2023-02-02T02:24:04;2.00;99.90
6788;DHT22;3431;47.966;10.268;2023-02-02T02:25:13;2.00;99.90
6788;DHT22;3431;47.966;10.268;2023-02-02T02:26:14;2.00;99.90
6788;DHT22;3431;47.966;10.268;2023-02-02T02:27:17;2.00;99.90
6788;DHT22;3431;47.966;10.268;2023-02-02T02:28:19;2.00;99.90
6788;DHT22;3431;47.966;10.268;2023-02-02T02:29:02;2.10;99.90
6788;DHT22;3431;47.966;10.268;2023-02-02T02:29:52;2.10;99.90
6788;DHT22;3431;47.966;10.268;2023-02-02T02:30:39;2.10;99.90
6788;DHT22;3431;47.966;10.268;2023-02-02T02:32:10;2.10;99.90
6788;DHT22;3431;47.966;10.268;2023-02-02T02:32:40;2.10;99.90
6788;DHT22;3431;47.966;10.268;2023-02-02T02:33:08;2.10;99.90
6788;DHT22;3431;47.966;10.268;2023-02-02T02:33:34;2.10;99.90
6788;DHT22;3431;47.966;10.268;2023-02-02T02:34:06;2.10;99.90
6788;DHT22;3431;47.966;10.268;2023-02-02T02:34:42;2.10;99.90
6788;DHT22;3431;47.966;10.268;2023-02-02T02:35:11;2.10;99.90
6788;DHT22;3431;47.966;10.268;2023-02-02T02:35:36;2.10;99.90
6788;DHT22;3431;47.966;10.268;2023-02-02T02:36:05;2.10;99.90
6788;DHT22;3431;47.966;10.268;2023-02-02T02:36:37;2.10;99.90
6788;DHT22;3431;47.966;10.268;2023-02-02T02:37:07;2.10;99.90
6788;DHT22;3431;47.966;10.268;2023-02-02T02:37:36;2.10;99.90
6788;DHT22;3431;47.966;10.268;2023-02-02T02:38:06;2.10;99.90
6788;DHT22;3431;47.966;10.268;2023-02-02T02:38:35;2.10;99.90
6788;DHT22;3431;47.966;10.268;2023-02-02T02:39:03;2.10;99.90
6788;DHT22;3431;47.966;10.268;2023-02-02T02:39:31;2.10;99.90
6788;DHT22;3431;47.966;10.268;2023-02-02T02:39:58;2.10;99.90
6788;DHT22;3431;47.966;10.268;2023-02-02T02:40:25;2.10;99.90
6788;DHT22;3431;47.966;10.268;2023-02-02T02:40:53;2.10;99.90
6788;DHT22;3431;47.966;10.268;2023-02-02T02:41:20;2.10;99.90
6788;DHT22;3431;47.966;10.268;2023-02-02T02:41:45;2.10;99.90
6788;DHT22;3431;47.966;10.268;2023-02-02T02:42:12;2.10;99.90
6788;DHT22;3431;47.966;10.268;2023-02-02T02:42:38;2.10;99.90